sensor_id;sensor_type;location;lat;lon;timestamp;temperature;humidity
9913;DHT22;41380;52.548;13.344;2022-10-04T00:02:05;13.20;99.90
9913;DHT22;41380;52.548;13.344;2022-10-04T00:04:45;13.30;99.90
9913;DHT22;41380;52.548;13.344;2022-10-04T00:07:16;13.30;99.90
9913;DHT22;41380;52.548;13.344;2022-10-04T00:09:47;13.30;99.90
9913;DHT22;41380;52.548;13.344;2022-10-04T00:12:19;13.20;99.90
9913;DHT22;41380;52.548;13.344;2022-10-04T00:14:53;13.30;99.90
9913;DHT22;41380;52.548;13.344;2022-10-04T00:17:23;13.30;99.90
9913;DHT22;41380;52.548;13.344;2022-10-04T00:19:53;13.30;99.90
9913;DHT22;41380;52.548;13.344;2022-10-04T00:22:25;13.30;99.90
9913;DHT22;41380;52.548;13.344;2022-10-04T00:25:19;13.30;99.90
9913;DHT22;41380;52.548;13.344;2022-10-04T00:31:11;13.20;99.90
9913;DHT22;41380;52.548;13.344;2022-10-04T00:33:41;13.20;99.90
9913;DHT22;41380;52.548;13.344;2022-10-04T00:36:31;13.20;99.90
9913;DHT22;41380;52.548;13.344;2022-10-04T00:39:03;13.20;99.90
9913;DHT22;41380;52.548;13.344;2022-10-04T00:41:47;13.20;99.90
9913;DHT22;41380;52.548;13.344;2022-10-04T00:44:21;13.20;99.90
9913;DHT22;41380;52.548;13.344;2022-10-04T00:46:53;13.20;99.90
9913;DHT22;41380;52.548;13.344;2022-10-04T00:49:23;13.30;99.90
9913;DHT22;41380;52.548;13.344;2022-10-04T00:51:56;13.20;99.90
9913;DHT22;41380;52.548;13.344;2022-10-04T00:54:29;13.20;99.90
9913;DHT22;41380;52.548;13.344;2022-10-04T00:57:02;13.20;99.90
9913;DHT22;41380;52.548;13.344;2022-10-04T00:59:33;13.20;99.90
9913;DHT22;41380;52.548;13.344;2022-10-04T01:02:05;13.20;99.90
9913;DHT22;41380;52.548;13.344;2022-10-04T01:04:40;13.30;99.90
9913;DHT22;41380;52.548;13.344;2022-10-04T01:07:09;13.30;99.90
9913;DHT22;41380;52.548;13.344;2022-10-04T01:09:45;13.20;99.90
9913;DHT22;41380;52.548;13.344;2022-10-04T01:12:25;13.30;99.90
9913;DHT22;41380;52.548;13.344;2022-10-04T01:14:56;13.20;99.90
9913;DHT22;41380;52.548;13.344;2022-10-04T01:17:28;13.20;99.90
9913;DHT22;41380;52.548;13.344;2022-10-04T01:19:56;13.10;99.90
9913;DHT22;41380;52.548;13.344;2022-10-04T01:22:34;13.00;99.90
9913;DHT22;41380;52.548;13.344;2022-10-04T01:25:01;13.00;99.90
9913;DHT22;41380;52.548;13.344;2022-10-04T01:27:34;12.80;99.90
9913;DHT22;41380;52.548;13.344;2022-10-04T01:30:04;12.80;99.90
9913;DHT22;41380;52.548;13.344;2022-10-04T01:32:33;12.80;99.90
9913;DHT22;41380;52.548;13.344;2022-10-04T01:35:01;12.80;99.90
9913;DHT22;41380;52.548;13.344;2022-10-04T01:37:28;12.80;99.90
9913;DHT22;41380;52.548;13.344;2022-10-04T01:39:59;12.90;99.90
9913;DHT22;41380;52.548;13.344;2022-10-04T01:42:31;12.80;99.90
9913;DHT22;41380;52.548;13.344;2022-10-04T01:45:06;12.90;99.90
9913;DHT22;41380;52.548;13.344;2022-10-04T01:47:40;12.90;99.90
9913;DHT22;41380;52.548;13.344;2022-10-04T01:50:18;12.80;99.90
9913;DHT22;41380;52.548;13.344;2022-10-04T01:52:48;12.80;99.90
9913;DHT22;41380;52.548;13.344;2022-10-04T01:55:23;12.90;99.90
9913;DHT22;41380;52.548;13.344;2022-10-04T01:57:56;12.90;99.90
9913;DHT22;41380;52.548;13.344;2022-10-04T02:00:25;12.90;99.90
9913;DHT22;41380;52.548;13.344;2022-10-04T02:02:56;12.90;99.90
9913;DHT22;41380;52.548;13.344;2022-10-04T02:05:28;12.90;99.90
9913;DHT22;41380;52.548;13.344;2022-10-04T02:07:56;12.90;99.90
9913;DHT22;41380;52.548;13.344;2022-10-04T02:10:31;12.90;99.90
9913;DHT22;41380;52.548;13.344;2022-10-04T02:13:01;12.90;99.90
9913;DHT22;41380;52.548;13.344;2022-10-04T02:15:31;12.80;99.90
9913;DHT22;41380;52.548;13.344;2022-10-04T02:18:04;12.70;99.90
9913;DHT22;41380;52.548;13.344;2022-10-04T02:20:38;12.70;99.90
9913;DHT22;41380;52.548;13.344;2022-10-04T02:23:06;12.70;99.90
9913;DHT22;41380;52.548;13.344;2022-10-04T02:25:37;12.70;99.90
9913;DHT22;41380;52.548;13.344;2022-10-04T02:28:09;12.70;99.90
9913;DHT22;41380;52.548;13.344;2022-10-04T02:30:37;12.80;99.90
9913;DHT22;41380;52.548;13.344;2022-10-04T02:33:06;12.70;99.90
9913;DHT22;41380;52.548;13.344;2022-10-04T02:35:34;12.60;99.90
9913;DHT22;41380;52.548;13.344;2022-10-04T02:38:08;12.50;99.90
9913;DHT22;41380;52.548;13.344;2022-10-04T02:40:42;12.40;99.90
9913;DHT22;41380;52.548;13.344;2022-10-04T02:43:15;12.40;99.90
9913;DHT22;41380;52.548;13.344;2022-10-04T02:45:48;12.40;99.90
9913;DHT22;41380;52.548;13.344;2022-10-04T02:48:31;12.40;99.90
9913;DHT22;41380;52.548;13.344;2022-10-04T02:51:05;12.40;99.90
9913;DHT22;41380;52.548;13.344;2022-10-04T02:53:45;12.30;99.90
9913;DHT22;41380;52.548;13.344;2022-10-04T02:56:16;12.20;99.90
9913;DHT22;41380;52.548;13.344;2022-10-04T02:58:47;12.00;99.90
9913;DHT22;41380;52.548;13.344;2022-10-04T03:01:22;11.90;99.90
9913;DHT22;41380;52.548;13.344;2022-10-04T03:03:50;11.70;99.90
9913;DHT22;41380;52.548;13.344;2022-10-04T03:06:19;11.60;99.90
9913;DHT22;41380;52.548;13.344;2022-10-04T03:08:49;11.50;99.90
9913;DHT22;41380;52.548;13.344;2022-10-04T03:11:21;11.40;99.90
9913;DHT22;41380;52.548;13.344;2022-10-04T03:13:52;11.30;99.90
9913;DHT22;41380;52.548;13.344;2022-10-04T03:16:20;11.20;99.90
9913;DHT22;41380;52.548;13.344;2022-10-04T03:18:49;11.20;99.90
9913;DHT22;41380;52.548;13.344;2022-10-04T03:21:20;11.10;99.90
9913;DHT22;41380;52.548;13.344;2022-10-04T03:23:48;11.10;99.90
9913;DHT22;41380;52.548;13.344;2022-10-04T03:26:26;11.00;99.90
9913;DHT22;41380;52.548;13.344;2022-10-04T03:28:55;10.90;99.90
9913;DHT22;41380;52.548;13.344;2022-10-04T03:31:22;10.90;99.90
9913;DHT22;41380;52.548;13.344;2022-10-04T03:33:53;10.90;99.90
9913;DHT22;41380;52.548;13.344;2022-10-04T03:36:22;10.80;99.90
9913;DHT22;41380;52.548;13.344;2022-10-04T03:38:52;10.80;99.90
9913;DHT22;41380;52.548;13.344;2022-10-04T03:41:23;10.70;99.90
9913;DHT22;41380;52.548;13.344;2022-10-04T03:43:53;10.60;99.90
9913;DHT22;41380;52.548;13.344;2022-10-04T03:46:20;10.50;99.90
9913;DHT22;41380;52.548;13.344;2022-10-04T03:48:51;10.60;99.90
9913;DHT22;41380;52.548;13.344;2022-10-04T03:51:20;10.50;99.90
9913;DHT22;41380;52.548;13.344;2022-10-04T03:53:50;10.60;99.90
9913;DHT22;41380;52.548;13.344;2022-10-04T03:56:21;10.80;99.90
9913;DHT22;41380;52.548;13.344;2022-10-04T03:58:52;10.90;99.90
9913;DHT22;41380;52.548;13.344;2022-10-04T04:01:34;11.00;99.90
9913;DHT22;41380;52.548;13.344;2022-10-04T04:04:11;11.00;99.90
9913;DHT22;41380;52.548;13.344;2022-10-04T04:06:46;11.20;99.90
9913;DHT22;41380;52.548;13.344;2022-10-04T04:09:21;11.20;99.90
9913;DHT22;41380;52.548;13.344;2022-10-04T04:11:50;11.30;99.90
9913;DHT22;41380;52.548;13.344;2022-10-04T04:14:23;11.30;99.90
9913;DHT22;41380;52.548;13.344;2022-10-04T04:16:52;11.30;99.90
9913;DHT22;41380;52.548;13.344;2022-10-04T04:19:23;11.20;99.90
9913;DHT22;41380;52.548;13.344;2022-10-04T04:21:53;11.00;99.90
9913;DHT22;41380;52.548;13.344;2022-10-04T04:24:24;10.90;99.90
9913;DHT22;41380;52.548;13.344;2022-10-04T04:26:55;10.90;99.90
9913;DHT22;41380;52.548;13.344;2022-10-04T04:29:30;10.80;99.90
9913;DHT22;41380;52.548;13.344;2022-10-04T04:31:59;10.80;99.90
9913;DHT22;41380;52.548;13.344;2022-10-04T04:34:30;10.70;99.90
9913;DHT22;41380;52.548;13.344;2022-10-04T04:36:59;10.60;99.90
9913;DHT22;41380;52.548;13.344;2022-10-04T04:39:27;10.60;99.90
9913;DHT22;41380;52.548;13.344;2022-10-04T04:42:04;10.50;99.90
9913;DHT22;41380;52.548;13.344;2022-10-04T04:44:34;10.40;99.90
9913;DHT22;41380;52.548;13.344;2022-10-04T04:47:05;10.50;99.90
9913;DHT22;41380;52.548;13.344;2022-10-04T04:49:37;10.50;99.90
9913;DHT22;41380;52.548;13.344;2022-10-04T04:52:05;10.50;99.90
9913;DHT22;41380;52.548;13.344;2022-10-04T04:54:39;10.60;99.90
9913;DHT22;41380;52.548;13.344;2022-10-04T04:57:06;10.60;99.90
9913;DHT22;41380;52.548;13.344;2022-10-04T04:59:34;10.60;99.90
9913;DHT22;41380;52.548;13.344;2022-10-04T05:02:02;10.70;99.90
9913;DHT22;41380;52.548;13.344;2022-10-04T05:04:29;10.60;99.90
9913;DHT22;41380;52.548;13.344;2022-10-04T05:07:01;10.50;99.90
9913;DHT22;41380;52.548;13.344;2022-10-04T05:09:30;10.40;99.90
9913;DHT22;41380;52.548;13.344;2022-10-04T05:12:02;10.40;99.90
9913;DHT22;41380;52.548;13.344;2022-10-04T05:14:37;10.50;99.90
9913;DHT22;41380;52.548;13.344;2022-10-04T05:17:06;10.60;99.90
9913;DHT22;41380;52.548;13.344;2022-10-04T05:19:36;10.60;99.90
9913;DHT22;41380;52.548;13.344;2022-10-04T05:22:08;10.80;99.90
9913;DHT22;41380;52.548;13.344;2022-10-04T05:24:38;10.90;99.90
9913;DHT22;41380;52.548;13.344;2022-10-04T05:27:12;11.10;99.90
9913;DHT22;41380;52.548;13.344;2022-10-04T05:29:53;11.10;99.90
9913;DHT22;41380;52.548;13.344;2022-10-04T05:32:27;11.30;99.90
9913;DHT22;41380;52.548;13.344;2022-10-04T05:34:58;11.50;99.90
9913;DHT22;41380;52.548;13.344;2022-10-04T05:40:38;11.80;99.90
9913;DHT22;41380;52.548;13.344;2022-10-04T05:43:21;12.00;99.90
9913;DHT22;41380;52.548;13.344;2022-10-04T05:48:53;12.30;99.90
9913;DHT22;41380;52.548;13.344;2022-10-04T05:51:22;12.50;99.90
9913;DHT22;41380;52.548;13.344;2022-10-04T05:53:50;12.60;99.90
9913;DHT22;41380;52.548;13.344;2022-10-04T05:59:43;12.90;99.90
9913;DHT22;41380;52.548;13.344;2022-10-04T06:02:22;13.10;99.90
9913;DHT22;41380;52.548;13.344;2022-10-04T06:05:07;13.20;99.90
9913;DHT22;41380;52.548;13.344;2022-10-04T06:07:39;13.40;99.90
9913;DHT22;41380;52.548;13.344;2022-10-04T06:10:26;13.40;99.90
9913;DHT22;41380;52.548;13.344;2022-10-04T06:12:59;13.70;99.90
9913;DHT22;41380;52.548;13.344;2022-10-04T06:15:52;13.70;99.90
9913;DHT22;41380;52.548;13.344;2022-10-04T06:18:36;13.80;99.90
9913;DHT22;41380;52.548;13.344;2022-10-04T06:21:18;13.80;99.90
9913;DHT22;41380;52.548;13.344;2022-10-04T06:23:51;13.80;99.90
9913;DHT22;41380;52.548;13.344;2022-10-04T06:26:22;13.90;99.90
9913;DHT22;41380;52.548;13.344;2022-10-04T06:28:54;14.00;99.70
9913;DHT22;41380;52.548;13.344;2022-10-04T06:31:42;14.10;99.70
9913;DHT22;41380;52.548;13.344;2022-10-04T06:40:41;14.40;98.90
9913;DHT22;41380;52.548;13.344;2022-10-04T06:46:36;14.40;98.70
9913;DHT22;41380;52.548;13.344;2022-10-04T06:49:32;14.40;98.80
9913;DHT22;41380;52.548;13.344;2022-10-04T06:52:23;14.40;98.50
9913;DHT22;41380;52.548;13.344;2022-10-04T06:57:58;14.40;98.60
9913;DHT22;41380;52.548;13.344;2022-10-04T07:00:38;14.40;98.50
9913;DHT22;41380;52.548;13.344;2022-10-04T07:03:11;14.30;98.60
9913;DHT22;41380;52.548;13.344;2022-10-04T07:05:47;14.30;98.50
9913;DHT22;41380;52.548;13.344;2022-10-04T07:08:18;14.30;98.80
9913;DHT22;41380;52.548;13.344;2022-10-04T07:11:02;14.40;98.80
9913;DHT22;41380;52.548;13.344;2022-10-04T07:13:38;14.50;98.80
9913;DHT22;41380;52.548;13.344;2022-10-04T07:16:10;14.50;98.80
9913;DHT22;41380;52.548;13.344;2022-10-04T07:18:54;14.60;98.60
9913;DHT22;41380;52.548;13.344;2022-10-04T07:21:25;14.60;98.60
9913;DHT22;41380;52.548;13.344;2022-10-04T07:23:56;14.80;98.50
9913;DHT22;41380;52.548;13.344;2022-10-04T07:26:35;14.80;98.30
9913;DHT22;41380;52.548;13.344;2022-10-04T07:29:12;14.90;98.30
9913;DHT22;41380;52.548;13.344;2022-10-04T07:31:50;15.00;98.30
9913;DHT22;41380;52.548;13.344;2022-10-04T07:34:24;14.90;98.30
9913;DHT22;41380;52.548;13.344;2022-10-04T07:36:53;14.80;98.30
9913;DHT22;41380;52.548;13.344;2022-10-04T07:39:25;14.80;98.30
9913;DHT22;41380;52.548;13.344;2022-10-04T07:41:56;14.80;98.40
9913;DHT22;41380;52.548;13.344;2022-10-04T07:44:34;14.70;98.60
9913;DHT22;41380;52.548;13.344;2022-10-04T07:47:08;14.80;98.60
9913;DHT22;41380;52.548;13.344;2022-10-04T07:49:40;14.80;98.60
9913;DHT22;41380;52.548;13.344;2022-10-04T07:55:24;15.00;98.30
9913;DHT22;41380;52.548;13.344;2022-10-04T07:58:05;15.00;98.20
9913;DHT22;41380;52.548;13.344;2022-10-04T08:00:42;14.90;98.30
9913;DHT22;41380;52.548;13.344;2022-10-04T08:06:27;14.90;98.20
9913;DHT22;41380;52.548;13.344;2022-10-04T08:09:22;14.90;98.20
9913;DHT22;41380;52.548;13.344;2022-10-04T08:11:59;14.80;98.20
9913;DHT22;41380;52.548;13.344;2022-10-04T08:14:34;14.90;98.30
9913;DHT22;41380;52.548;13.344;2022-10-04T08:17:14;15.00;98.30
9913;DHT22;41380;52.548;13.344;2022-10-04T08:19:52;15.30;98.10
9913;DHT22;41380;52.548;13.344;2022-10-04T08:22:29;15.60;97.60
9913;DHT22;41380;52.548;13.344;2022-10-04T08:25:02;16.20;97.30
9913;DHT22;41380;52.548;13.344;2022-10-04T08:27:42;16.30;96.60
9913;DHT22;41380;52.548;13.344;2022-10-04T08:33:54;16.40;95.90
9913;DHT22;41380;52.548;13.344;2022-10-04T08:36:31;16.40;95.70
9913;DHT22;41380;52.548;13.344;2022-10-04T08:39:09;16.60;95.50
9913;DHT22;41380;52.548;13.344;2022-10-04T08:42:08;16.80;95.40
9913;DHT22;41380;52.548;13.344;2022-10-04T08:45:04;17.00;95.40
9913;DHT22;41380;52.548;13.344;2022-10-04T08:51:34;17.60;94.60
9913;DHT22;41380;52.548;13.344;2022-10-04T09:00:20;17.90;93.50
9913;DHT22;41380;52.548;13.344;2022-10-04T09:06:26;17.70;93.50
9913;DHT22;41380;52.548;13.344;2022-10-04T09:15:28;17.80;93.40
9913;DHT22;41380;52.548;13.344;2022-10-04T09:18:36;17.60;93.60
9913;DHT22;41380;52.548;13.344;2022-10-04T09:21:12;17.70;94.00
9913;DHT22;41380;52.548;13.344;2022-10-04T09:26:43;18.30;92.90
9913;DHT22;41380;52.548;13.344;2022-10-04T09:29:40;18.50;92.80
9913;DHT22;41380;52.548;13.344;2022-10-04T09:32:29;18.50;92.90
9913;DHT22;41380;52.548;13.344;2022-10-04T09:35:24;18.30;92.70
9913;DHT22;41380;52.548;13.344;2022-10-04T09:38:19;18.20;92.90
9913;DHT22;41380;52.548;13.344;2022-10-04T09:44:13;18.20;92.90
9913;DHT22;41380;52.548;13.344;2022-10-04T09:47:09;18.30;92.50
9913;DHT22;41380;52.548;13.344;2022-10-04T09:52:47;18.10;92.70
9913;DHT22;41380;52.548;13.344;2022-10-04T09:55:47;18.00;92.60
9913;DHT22;41380;52.548;13.344;2022-10-04T09:58:38;17.70;93.00
9913;DHT22;41380;52.548;13.344;2022-10-04T10:01:13;17.60;93.10
9913;DHT22;41380;52.548;13.344;2022-10-04T10:03:54;17.70;93.10
9913;DHT22;41380;52.548;13.344;2022-10-04T10:06:45;17.70;93.20
9913;DHT22;41380;52.548;13.344;2022-10-04T10:09:23;17.70;93.20
9913;DHT22;41380;52.548;13.344;2022-10-04T10:15:46;17.90;92.60
9913;DHT22;41380;52.548;13.344;2022-10-04T10:18:20;18.30;92.50
9913;DHT22;41380;52.548;13.344;2022-10-04T10:21:09;18.50;92.50
9913;DHT22;41380;52.548;13.344;2022-10-04T10:24:13;18.70;92.10
9913;DHT22;41380;52.548;13.344;2022-10-04T10:27:11;19.00;91.90
9913;DHT22;41380;52.548;13.344;2022-10-04T10:30:07;19.10;91.60
9913;DHT22;41380;52.548;13.344;2022-10-04T10:32:54;19.30;91.60
9913;DHT22;41380;52.548;13.344;2022-10-04T10:35:35;19.50;91.40
9913;DHT22;41380;52.548;13.344;2022-10-04T10:38:26;19.50;90.90
9913;DHT22;41380;52.548;13.344;2022-10-04T10:44:21;19.30;91.40
9913;DHT22;41380;52.548;13.344;2022-10-04T10:47:11;19.30;91.40
9913;DHT22;41380;52.548;13.344;2022-10-04T10:53:15;19.40;91.20
9913;DHT22;41380;52.548;13.344;2022-10-04T11:05:28;20.00;90.90
9913;DHT22;41380;52.548;13.344;2022-10-04T11:08:15;20.00;90.70
9913;DHT22;41380;52.548;13.344;2022-10-04T11:17:00;20.00;91.00
9913;DHT22;41380;52.548;13.344;2022-10-04T11:23:25;19.80;90.90
9913;DHT22;41380;52.548;13.344;2022-10-04T11:29:05;19.60;91.30
9913;DHT22;41380;52.548;13.344;2022-10-04T11:38:08;21.00;89.40
9913;DHT22;41380;52.548;13.344;2022-10-04T11:40:52;21.30;88.80
9913;DHT22;41380;52.548;13.344;2022-10-04T11:43:46;21.30;88.40
9913;DHT22;41380;52.548;13.344;2022-10-04T11:46:26;21.20;88.10
9913;DHT22;41380;52.548;13.344;2022-10-04T11:49:10;20.70;88.10
9913;DHT22;41380;52.548;13.344;2022-10-04T11:52:24;20.30;88.30
9913;DHT22;41380;52.548;13.344;2022-10-04T11:57:52;19.60;90.80
9913;DHT22;41380;52.548;13.344;2022-10-04T12:00:22;19.50;91.10
9913;DHT22;41380;52.548;13.344;2022-10-04T12:03:24;19.40;91.10
9913;DHT22;41380;52.548;13.344;2022-10-04T12:06:26;19.30;90.90
9913;DHT22;41380;52.548;13.344;2022-10-04T12:09:03;19.30;91.20
9913;DHT22;41380;52.548;13.344;2022-10-04T12:11:53;19.30;91.20
9913;DHT22;41380;52.548;13.344;2022-10-04T12:14:58;19.50;91.20
9913;DHT22;41380;52.548;13.344;2022-10-04T12:17:48;19.90;90.80
9913;DHT22;41380;52.548;13.344;2022-10-04T12:20:40;20.10;90.40
9913;DHT22;41380;52.548;13.344;2022-10-04T12:29:34;20.80;86.80
9913;DHT22;41380;52.548;13.344;2022-10-04T12:32:09;20.60;87.50
9913;DHT22;41380;52.548;13.344;2022-10-04T12:34:46;20.70;87.50
9913;DHT22;41380;52.548;13.344;2022-10-04T12:37:25;20.70;87.90
9913;DHT22;41380;52.548;13.344;2022-10-04T12:40:05;20.80;87.90
9913;DHT22;41380;52.548;13.344;2022-10-04T12:42:45;20.70;86.90
9913;DHT22;41380;52.548;13.344;2022-10-04T12:45:38;20.70;87.40
9913;DHT22;41380;52.548;13.344;2022-10-04T12:51:17;20.60;87.40
9913;DHT22;41380;52.548;13.344;2022-10-04T12:53:51;20.40;87.80
9913;DHT22;41380;52.548;13.344;2022-10-04T12:56:40;20.30;88.20
9913;DHT22;41380;52.548;13.344;2022-10-04T12:59:22;20.20;89.00
9913;DHT22;41380;52.548;13.344;2022-10-04T13:02:01;20.20;88.00
9913;DHT22;41380;52.548;13.344;2022-10-04T13:04:35;20.30;88.10
9913;DHT22;41380;52.548;13.344;2022-10-04T13:10:24;21.00;87.60
9913;DHT22;41380;52.548;13.344;2022-10-04T13:15:51;21.10;85.60
9913;DHT22;41380;52.548;13.344;2022-10-04T13:18:27;21.00;85.10
9913;DHT22;41380;52.548;13.344;2022-10-04T13:21:02;20.80;85.40
9913;DHT22;41380;52.548;13.344;2022-10-04T13:23:40;20.70;86.30
9913;DHT22;41380;52.548;13.344;2022-10-04T13:26:19;20.60;86.00
9913;DHT22;41380;52.548;13.344;2022-10-04T13:28:56;20.50;86.80
9913;DHT22;41380;52.548;13.344;2022-10-04T13:31:34;20.60;87.10
9913;DHT22;41380;52.548;13.344;2022-10-04T13:34:13;20.50;86.50
9913;DHT22;41380;52.548;13.344;2022-10-04T13:37:13;20.40;86.60
9913;DHT22;41380;52.548;13.344;2022-10-04T13:40:14;20.40;86.60
9913;DHT22;41380;52.548;13.344;2022-10-04T13:42:59;20.60;85.20
9913;DHT22;41380;52.548;13.344;2022-10-04T13:45:37;20.40;86.00
9913;DHT22;41380;52.548;13.344;2022-10-04T13:48:29;20.40;85.70
9913;DHT22;41380;52.548;13.344;2022-10-04T13:54:07;20.00;86.70
9913;DHT22;41380;52.548;13.344;2022-10-04T13:57:14;19.80;85.60
9913;DHT22;41380;52.548;13.344;2022-10-04T13:59:48;19.80;85.80
9913;DHT22;41380;52.548;13.344;2022-10-04T14:02:56;19.90;86.10
9913;DHT22;41380;52.548;13.344;2022-10-04T14:08:50;20.00;85.20
9913;DHT22;41380;52.548;13.344;2022-10-04T14:18:13;20.10;84.10
9913;DHT22;41380;52.548;13.344;2022-10-04T14:21:26;20.10;83.10
9913;DHT22;41380;52.548;13.344;2022-10-04T14:27:21;19.90;84.30
9913;DHT22;41380;52.548;13.344;2022-10-04T14:30:09;19.50;85.40
9913;DHT22;41380;52.548;13.344;2022-10-04T14:35:45;19.20;87.50
9913;DHT22;41380;52.548;13.344;2022-10-04T14:38:42;19.20;88.10
9913;DHT22;41380;52.548;13.344;2022-10-04T14:41:55;19.20;88.30
9913;DHT22;41380;52.548;13.344;2022-10-04T14:48:00;19.10;89.00
9913;DHT22;41380;52.548;13.344;2022-10-04T14:50:42;18.90;89.10
9913;DHT22;41380;52.548;13.344;2022-10-04T14:53:22;18.70;88.70
9913;DHT22;41380;52.548;13.344;2022-10-04T14:59:05;18.70;90.10
9913;DHT22;41380;52.548;13.344;2022-10-04T15:01:35;18.70;89.80
9913;DHT22;41380;52.548;13.344;2022-10-04T15:04:12;18.70;89.90
9913;DHT22;41380;52.548;13.344;2022-10-04T15:06:46;18.60;89.70
9913;DHT22;41380;52.548;13.344;2022-10-04T15:09:48;18.50;90.10
9913;DHT22;41380;52.548;13.344;2022-10-04T15:12:27;18.50;89.80
9913;DHT22;41380;52.548;13.344;2022-10-04T15:18:20;18.50;90.30
9913;DHT22;41380;52.548;13.344;2022-10-04T15:20:55;18.50;90.30
9913;DHT22;41380;52.548;13.344;2022-10-04T15:23:37;18.50;90.50
9913;DHT22;41380;52.548;13.344;2022-10-04T15:26:41;18.40;90.40
9913;DHT22;41380;52.548;13.344;2022-10-04T15:29:18;18.30;90.70
9913;DHT22;41380;52.548;13.344;2022-10-04T15:31:53;18.40;91.00
9913;DHT22;41380;52.548;13.344;2022-10-04T15:34:28;18.40;90.80
9913;DHT22;41380;52.548;13.344;2022-10-04T15:37:06;18.40;90.60
9913;DHT22;41380;52.548;13.344;2022-10-04T15:42:35;18.10;90.70
9913;DHT22;41380;52.548;13.344;2022-10-04T15:45:22;18.00;91.20
9913;DHT22;41380;52.548;13.344;2022-10-04T15:48:03;17.90;91.50
9913;DHT22;41380;52.548;13.344;2022-10-04T15:50:52;17.70;91.50
9913;DHT22;41380;52.548;13.344;2022-10-04T15:53:37;17.60;91.70
9913;DHT22;41380;52.548;13.344;2022-10-04T15:56:12;17.50;91.90
9913;DHT22;41380;52.548;13.344;2022-10-04T15:59:07;17.40;92.00
9913;DHT22;41380;52.548;13.344;2022-10-04T16:01:58;17.40;92.20
9913;DHT22;41380;52.548;13.344;2022-10-04T16:04:40;17.20;92.50
9913;DHT22;41380;52.548;13.344;2022-10-04T16:07:30;17.10;92.70
9913;DHT22;41380;52.548;13.344;2022-10-04T16:10:17;16.90;92.90
9913;DHT22;41380;52.548;13.344;2022-10-04T16:13:04;16.70;92.80
9913;DHT22;41380;52.548;13.344;2022-10-04T16:15:41;16.50;93.10
9913;DHT22;41380;52.548;13.344;2022-10-04T16:18:34;16.30;93.30
9913;DHT22;41380;52.548;13.344;2022-10-04T16:21:18;16.20;93.50
9913;DHT22;41380;52.548;13.344;2022-10-04T16:24:36;16.00;93.70
9913;DHT22;41380;52.548;13.344;2022-10-04T16:30:24;15.70;94.00
9913;DHT22;41380;52.548;13.344;2022-10-04T16:33:18;15.50;94.00
9913;DHT22;41380;52.548;13.344;2022-10-04T16:35:51;15.40;94.20
9913;DHT22;41380;52.548;13.344;2022-10-04T16:38:33;15.30;94.30
9913;DHT22;41380;52.548;13.344;2022-10-04T16:41:31;15.20;94.40
9913;DHT22;41380;52.548;13.344;2022-10-04T16:44:00;15.00;94.60
9913;DHT22;41380;52.548;13.344;2022-10-04T16:46:33;14.90;94.70
9913;DHT22;41380;52.548;13.344;2022-10-04T16:49:19;14.90;95.00
9913;DHT22;41380;52.548;13.344;2022-10-04T16:52:02;14.80;95.30
9913;DHT22;41380;52.548;13.344;2022-10-04T16:54:58;14.70;95.30
9913;DHT22;41380;52.548;13.344;2022-10-04T16:57:28;14.70;95.30
9913;DHT22;41380;52.548;13.344;2022-10-04T16:59:57;14.70;95.30
9913;DHT22;41380;52.548;13.344;2022-10-04T17:03:09;14.60;95.50
9913;DHT22;41380;52.548;13.344;2022-10-04T17:06:08;14.50;95.50
9913;DHT22;41380;52.548;13.344;2022-10-04T17:08:46;14.50;95.80
9913;DHT22;41380;52.548;13.344;2022-10-04T17:11:28;14.50;96.00
9913;DHT22;41380;52.548;13.344;2022-10-04T17:14:05;14.30;96.00
9913;DHT22;41380;52.548;13.344;2022-10-04T17:16:48;14.30;96.20
9913;DHT22;41380;52.548;13.344;2022-10-04T17:19:28;14.20;96.40
9913;DHT22;41380;52.548;13.344;2022-10-04T17:22:09;14.20;96.40
9913;DHT22;41380;52.548;13.344;2022-10-04T17:24:58;14.10;96.30
9913;DHT22;41380;52.548;13.344;2022-10-04T17:27:44;14.10;96.40
9913;DHT22;41380;52.548;13.344;2022-10-04T17:30:17;14.00;96.60
9913;DHT22;41380;52.548;13.344;2022-10-04T17:33:22;13.90;96.60
9913;DHT22;41380;52.548;13.344;2022-10-04T17:36:15;13.90;96.80
9913;DHT22;41380;52.548;13.344;2022-10-04T17:38:54;13.90;96.90
9913;DHT22;41380;52.548;13.344;2022-10-04T17:41:34;13.90;96.90
9913;DHT22;41380;52.548;13.344;2022-10-04T17:44:27;13.90;96.70
9913;DHT22;41380;52.548;13.344;2022-10-04T17:47:02;13.90;96.70
9913;DHT22;41380;52.548;13.344;2022-10-04T17:49:39;13.90;96.90
9913;DHT22;41380;52.548;13.344;2022-10-04T17:52:28;13.80;96.90
9913;DHT22;41380;52.548;13.344;2022-10-04T17:55:18;13.70;97.00
9913;DHT22;41380;52.548;13.344;2022-10-04T17:57:50;13.80;97.10
9913;DHT22;41380;52.548;13.344;2022-10-04T18:00:20;13.80;97.00
9913;DHT22;41380;52.548;13.344;2022-10-04T18:03:09;13.80;97.00
9913;DHT22;41380;52.548;13.344;2022-10-04T18:05:48;13.80;97.00
9913;DHT22;41380;52.548;13.344;2022-10-04T18:08:22;13.70;97.00
9913;DHT22;41380;52.548;13.344;2022-10-04T18:10:56;13.70;97.10
9913;DHT22;41380;52.548;13.344;2022-10-04T18:13:29;13.60;97.10
9913;DHT22;41380;52.548;13.344;2022-10-04T18:16:03;13.60;97.30
9913;DHT22;41380;52.548;13.344;2022-10-04T18:18:38;13.50;97.30
9913;DHT22;41380;52.548;13.344;2022-10-04T18:21:18;13.50;97.30
9913;DHT22;41380;52.548;13.344;2022-10-04T18:23:52;13.50;97.40
9913;DHT22;41380;52.548;13.344;2022-10-04T18:26:21;13.40;97.50
9913;DHT22;41380;52.548;13.344;2022-10-04T18:28:51;13.40;97.60
9913;DHT22;41380;52.548;13.344;2022-10-04T18:31:39;13.30;97.60
9913;DHT22;41380;52.548;13.344;2022-10-04T18:34:18;13.30;97.60
9913;DHT22;41380;52.548;13.344;2022-10-04T18:36:56;13.20;97.60
9913;DHT22;41380;52.548;13.344;2022-10-04T18:39:29;13.10;97.70
9913;DHT22;41380;52.548;13.344;2022-10-04T18:42:12;13.10;97.80
9913;DHT22;41380;52.548;13.344;2022-10-04T18:44:44;13.10;98.10
9913;DHT22;41380;52.548;13.344;2022-10-04T18:47:17;13.10;97.80
9913;DHT22;41380;52.548;13.344;2022-10-04T18:49:47;13.10;97.80
9913;DHT22;41380;52.548;13.344;2022-10-04T18:52:22;13.10;97.80
9913;DHT22;41380;52.548;13.344;2022-10-04T18:55:00;13.00;97.80
9913;DHT22;41380;52.548;13.344;2022-10-04T18:57:38;13.00;97.80
9913;DHT22;41380;52.548;13.344;2022-10-04T19:00:20;13.00;97.90
9913;DHT22;41380;52.548;13.344;2022-10-04T19:03:10;12.90;97.90
9913;DHT22;41380;52.548;13.344;2022-10-04T19:05:46;12.90;97.90
9913;DHT22;41380;52.548;13.344;2022-10-04T19:08:29;12.90;97.80
9913;DHT22;41380;52.548;13.344;2022-10-04T19:11:02;12.80;97.80
9913;DHT22;41380;52.548;13.344;2022-10-04T19:13:38;12.80;97.90
9913;DHT22;41380;52.548;13.344;2022-10-04T19:16:14;12.80;97.90
9913;DHT22;41380;52.548;13.344;2022-10-04T19:19:06;12.80;97.80